Time;durP1;ratioP1;P1;durP2;ratioP2;P2;SDS_P1;SDS_P2;PMS_P1;PMS_P2;Temp;Humidity;BMP_temperature;BMP_pressure;BME280_temperature;BME280_humidity;BME280_pressure;Samples;Min_cycle;Max_cycle;Signal;HPM_P1;HPM_P2
2022/08/26 00:00:53;;;;;;;22.38;7.68;;;;;;;28.03;51.41;101178.47;5074519;27;98990;-70
2022/08/26 00:03:20;;;;;;;23.13;7.18;;;;;;;27.63;52.35;101185.25;5065339;27;96752;-71
2022/08/26 00:05:47;;;;;;;23.90;6.88;;;;;;;27.99;51.65;101177.09;5070940;27;96890;-71
2022/08/26 00:08:15;;;;;;;19.70;6.20;;;;;;;27.94;51.66;101180.28;5069631;27;99837;-71
2022/08/26 00:10:42;;;;;;;19.95;6.82;;;;;;;28.02;51.67;101185.81;5073215;27;98983;-71
2022/08/26 00:13:10;;;;;;;14.48;6.82;;;;;;;28.02;51.42;101176.81;5075756;27;96695;-71
2022/08/26 00:15:38;;;;;;;16.83;7.47;;;;;;;27.89;52.00;101176.34;5071369;27;97193;-71
2022/08/26 00:18:07;;;;;;;19.55;7.75;;;;;;;27.84;52.20;101186.78;5074633;27;97648;-71
2022/08/26 00:20:34;;;;;;;19.83;7.00;;;;;;;27.93;51.85;101173.16;5069240;27;98445;-71
2022/08/26 00:23:01;;;;;;;20.58;7.05;;;;;;;27.91;52.04;101177.88;5075147;27;96857;-71
2022/08/26 00:25:28;;;;;;;17.27;6.63;;;;;;;27.94;51.85;101183.00;5063102;27;97011;-71
2022/08/26 00:27:57;;;;;;;18.35;6.70;;;;;;;27.98;51.61;101170.81;5073675;27;99036;-71
2022/08/26 00:30:26;;;;;;;17.45;6.90;;;;;;;27.92;51.85;101174.16;5062148;27;99240;-71
2022/08/26 00:32:55;;;;;;;26.88;7.70;;;;;;;27.91;51.72;101171.59;5069318;27;96715;-71
2022/08/26 00:35:21;;;;;;;18.70;7.05;;;;;;;27.96;51.92;101172.00;5064150;27;96788;-71
2022/08/26 00:37:48;;;;;;;22.10;7.43;;;;;;;28.06;51.51;101167.31;5069262;27;98946;-71
2022/08/26 00:40:17;;;;;;;18.60;6.80;;;;;;;27.96;51.80;101170.09;5070910;27;99282;-70
2022/08/26 00:42:44;;;;;;;22.98;7.57;;;;;;;27.97;51.78;101168.25;5071744;27;97182;-71
2022/08/26 00:45:11;;;;;;;17.35;7.47;;;;;;;27.88;52.03;101170.06;5074370;27;97058;-70
2022/08/26 00:47:43;;;;;;;21.35;7.00;;;;;;;27.87;52.02;101162.91;5074229;27;98887;-71
2022/08/26 00:50:15;;;;;;;20.55;7.47;;;;;;;27.85;52.33;101162.22;5072991;27;99099;-71
2022/08/26 00:52:42;;;;;;;19.77;6.93;;;;;;;27.71;52.54;101166.31;5070093;27;96744;-72
2022/08/26 00:55:17;;;;;;;24.55;7.68;;;;;;;27.81;52.36;101158.09;5066682;27;96900;-71
2022/08/26 00:57:45;;;;;;;18.90;7.25;;;;;;;27.79;52.54;101154.69;5069948;27;99236;-71
2022/08/26 01:00:16;;;;;;;16.95;7.22;;;;;;;27.73;52.54;101164.31;5064500;27;99031;-71
2022/08/26 01:02:43;;;;;;;15.77;6.75;;;;;;;27.67;52.82;101164.06;5075076;27;97211;-71
2022/08/26 01:05:12;;;;;;;22.83;7.20;;;;;;;27.76;52.42;101166.69;5065125;27;97143;-71
2022/08/26 01:07:38;;;;;;;20.50;7.25;;;;;;;27.68;52.82;101163.94;5066876;27;98927;-71
2022/08/26 01:10:11;;;;;;;15.60;7.75;;;;;;;27.69;52.91;101159.34;5072090;27;98769;-71
2022/08/26 01:12:42;;;;;;;27.17;7.68;;;;;;;27.75;52.87;101156.88;5069414;27;96731;-71
2022/08/26 01:15:12;;;;;;;20.20;8.38;;;;;;;27.87;52.35;101157.47;5070121;27;96823;-71
2022/08/26 01:17:39;;;;;;;19.63;7.50;;;;;;;27.74;52.72;101160.59;5068300;27;100751;-71
2022/08/26 01:20:20;;;;;;;25.15;7.75;;;;;;;27.88;52.19;101161.91;5072147;27;98853;-71
2022/08/26 01:22:55;;;;;;;19.52;7.18;;;;;;;27.84;52.28;101157.78;5068633;27;96828;-71
2022/08/26 01:25:23;;;;;;;24.48;7.90;;;;;;;27.85;52.45;101167.63;5067625;27;96811;-71
2022/08/26 01:27:51;;;;;;;16.05;7.35;;;;;;;27.86;52.33;101161.19;5068269;27;99242;-71
2022/08/26 01:30:21;;;;;;;15.88;7.25;;;;;;;27.90;52.16;101157.16;5070426;27;99423;-71
2022/08/26 01:32:53;;;;;;;21.77;7.85;;;;;;;27.89;52.29;101158.19;5064958;27;96882;-71
2022/08/26 01:35:20;;;;;;;17.30;7.70;;;;;;;27.82;52.32;101162.53;5069031;27;97203;-70
2022/08/26 01:37:49;;;;;;;20.58;8.25;;;;;;;27.76;52.61;101153.13;5069317;27;99772;-70
2022/08/26 01:40:24;;;;;;;22.67;9.40;;;;;;;27.70;52.66;101153.75;5068983;27;99168;-71
2022/08/26 01:42:52;;;;;;;23.95;8.52;;;;;;;27.76;52.70;101149.59;5063869;27;97168;-70
2022/08/26 01:45:23;;;;;;;19.60;7.40;;;;;;;27.44;53.54;101150.06;5067391;27;96766;-71
2022/08/26 01:47:52;;;;;;;17.50;7.07;;;;;;;27.69;53.15;101143.91;5066288;27;99018;-71
2022/08/26 01:50:24;;;;;;;24.35;7.32;;;;;;;27.73;52.56;101158.03;5067049;27;99088;-71
2022/08/26 01:52:53;;;;;;;20.80;7.85;;;;;;;27.72;52.71;101146.31;5068702;27;96865;-71
2022/08/26 01:55:23;;;;;;;22.75;7.90;;;;;;;27.34;53.71;101143.84;5065773;27;97681;-70
2022/08/26 01:57:54;;;;;;;19.88;7.90;;;;;;;27.63;53.04;101149.13;5067498;27;99946;-70
2022/08/26 02:00:22;;;;;;;24.27;7.47;;;;;;;27.47;53.51;101136.19;5068895;27;99163;-71
2022/08/26 02:03:15;;;;;;;27.50;8.02;;;;;;;27.45;53.71;101150.91;5072280;27;96689;-71
2022/08/26 02:05:41;;;;;;;18.70;7.60;;;;;;;27.47;53.57;101143.47;5059197;27;96885;-70
2022/08/26 02:08:08;;;;;;;20.08;7.93;;;;;;;27.61;53.26;101143.84;5066699;27;98271;-71
2022/08/26 02:10:37;;;;;;;25.80;10.00;;;;;;;27.49;53.52;101144.19;5064493;27;98821;-71
2022/08/26 02:13:03;;;;;;;21.55;9.00;;;;;;;27.47;53.66;101140.75;5073580;27;96714;-71
2022/08/26 02:15:32;;;;;;;16.95;8.40;;;;;;;27.43;53.81;101147.53;5069342;27;96778;-71
2022/08/26 02:17:58;;;;;;;20.35;7.57;;;;;;;27.51;53.64;101142.16;5070995;27;99184;-70
2022/08/26 02:20:24;;;;;;;15.38;8.27;;;;;;;27.43;53.72;101144.81;5072598;27;98854;-71
2022/08/26 02:22:51;;;;;;;23.17;10.10;;;;;;;27.20;54.60;101139.81;5072512;27;96788;-70
2022/08/26 02:25:24;;;;;;;25.52;9.27;;;;;;;27.41;53.87;101138.66;5063388;27;96821;-71
2022/08/26 02:27:53;;;;;;;21.25;8.07;;;;;;;27.27;54.48;101137.34;5067767;27;99693;-70
2022/08/26 02:30:22;;;;;;;17.65;9.18;;;;;;;27.21;54.56;101133.38;5058083;27;98906;-71
2022/08/26 02:32:50;;;;;;;23.35;8.20;;;;;;;27.35;54.23;101130.16;5072759;27;96788;-71
2022/08/26 02:35:19;;;;;;;23.88;8.40;;;;;;;27.41;53.99;101138.66;5058718;27;96896;-71
2022/08/26 02:37:45;;;;;;;22.88;8.35;;;;;;;27.39;53.97;101127.97;5072809;27;99419;-71
2022/08/26 02:40:15;;;;;;;23.42;8.52;;;;;;;27.33;54.37;101134.84;5069217;27;101471;-71
2022/08/26 02:42:41;;;;;;;23.85;8.45;;;;;;;27.24;54.63;101138.47;5071890;27;96741;-71
2022/08/26 02:45:11;;;;;;;27.77;10.82;;;;;;;27.18;54.65;101127.38;5071653;27;96740;-71
2022/08/26 02:47:38;;;;;;;31.88;9.15;;;;;;;27.38;54.19;101135.25;5065492;27;99315;-71
2022/08/26 02:50:06;;;;;;;22.05;9.27;;;;;;;27.35;54.24;101127.44;5070586;27;98971;-71
2022/08/26 02:52:32;;;;;;;24.45;8.63;;;;;;;27.37;54.22;101127.28;5062990;27;96727;-71
2022/08/26 02:54:59;;;;;;;22.08;8.68;;;;;;;27.23;54.65;101120.53;5070175;27;96882;-70
2022/08/26 02:57:25;;;;;;;20.45;8.75;;;;;;;27.23;54.45;101117.81;5070539;27;99295;-71
2022/08/26 02:59:51;;;;;;;25.80;8.85;;;;;;;27.35;54.46;101123.84;5071463;27;98808;-70
2022/08/26 03:02:20;;;;;;;24.00;9.60;;;;;;;27.38;54.13;101124.38;5070529;27;96785;-71
2022/08/26 03:04:46;;;;;;;25.52;8.60;;;;;;;27.27;54.46;101121.91;5069239;27;97387;-70
2022/08/26 03:07:12;;;;;;;27.02;8.52;;;;;;;27.26;54.58;101125.63;5063786;27;98857;-72
2022/08/26 03:09:39;;;;;;;22.52;9.43;;;;;;;27.32;54.40;101122.28;5074494;27;97545;-70
2022/08/26 03:12:06;;;;;;;27.75;10.15;;;;;;;27.18;54.83;101128.25;5075814;27;96860;-70
2022/08/26 03:14:32;;;;;;;22.70;9.38;;;;;;;26.88;55.93;101126.66;5075979;27;96949;-71
2022/08/26 03:16:59;;;;;;;22.23;7.43;;;;;;;26.99;56.10;101112.09;5075684;27;98999;-71
2022/08/26 03:19:26;;;;;;;16.02;7.95;;;;;;;26.95;55.97;101116.97;5072608;27;97762;-71
2022/08/26 03:21:53;;;;;;;26.30;9.40;;;;;;;27.08;55.41;101111.19;5069678;27;96759;-71
2022/08/26 03:24:20;;;;;;;24.00;9.85;;;;;;;27.15;55.09;101116.84;5071130;27;97525;-71
2022/08/26 03:26:49;;;;;;;25.60;9.40;;;;;;;27.14;55.16;101109.72;5071715;27;99238;-71
2022/08/26 03:32:00;;;;;;;25.77;9.40;;;;;;;27.24;54.87;101107.81;5061008;27;98328;-71
2022/08/26 03:34:28;;;;;;;21.33;9.32;;;;;;;27.19;54.98;101101.97;5073035;27;96822;-71
2022/08/26 03:36:56;;;;;;;21.90;9.98;;;;;;;27.19;54.96;101110.97;5068850;27;98827;-71
2022/08/26 03:39:22;;;;;;;23.95;9.63;;;;;;;27.22;54.87;101107.97;5075564;27;99046;-71
2022/08/26 03:41:50;;;;;;;24.35;10.07;;;;;;;27.20;54.85;101099.09;5066101;27;96661;-71
2022/08/26 03:44:16;;;;;;;26.00;9.80;;;;;;;27.21;54.91;101108.09;5072819;27;96910;-71
2022/08/26 03:46:43;;;;;;;26.92;9.10;;;;;;;27.27;54.65;101105.63;5074843;27;100331;-71
2022/08/26 03:49:12;;;;;;;22.25;9.13;;;;;;;27.14;55.23;101109.72;5073678;27;100257;-71
2022/08/26 03:51:40;;;;;;;26.02;9.68;;;;;;;27.23;54.88;101098.81;5075767;27;96827;-71
2022/08/26 03:54:07;;;;;;;21.27;9.40;;;;;;;27.12;55.22;101101.72;5073183;27;96925;-71
2022/08/26 03:56:34;;;;;;;26.45;9.55;;;;;;;27.07;55.24;101109.47;5071524;27;98866;-71
2022/08/26 03:59:01;;;;;;;24.73;9.63;;;;;;;27.16;55.25;101105.00;5074876;27;98976;-71
2022/08/26 04:01:28;;;;;;;26.38;9.15;;;;;;;27.17;55.21;101102.16;5075148;27;96741;-71
2022/08/26 04:03:58;;;;;;;18.77;8.75;;;;;;;27.22;54.98;101102.53;5068993;27;97176;-71
2022/08/26 04:06:25;;;;;;;23.52;9.68;;;;;;;27.17;54.97;101093.16;5068670;27;100220;-70
2022/08/26 04:08:53;;;;;;;32.97;11.75;;;;;;;27.06;55.16;101091.47;5072990;27;97529;-71
2022/08/26 04:11:23;;;;;;;26.38;8.82;;;;;;;27.21;55.04;101089.97;5074727;27;97153;-71
2022/08/26 04:13:51;;;;;;;24.67;9.18;;;;;;;27.16;55.10;101086.88;5073442;27;97124;-70
2022/08/26 04:16:18;;;;;;;22.15;8.75;;;;;;;27.23;54.98;101090.69;5072613;27;97822;-70
2022/08/26 04:18:44;;;;;;;27.88;10.15;;;;;;;27.01;55.57;101091.09;5074208;27;98696;-71
2022/08/26 04:21:11;;;;;;;21.80;10.00;;;;;;;27.17;55.17;101093.16;5067588;27;96875;-71
2022/08/26 04:23:38;;;;;;;26.13;10.15;;;;;;;27.01;55.49;101093.81;5072182;27;96840;-71
2022/08/26 04:26:06;;;;;;;24.02;10.30;;;;;;;27.17;55.09;101099.44;5074179;27;99037;-70
2022/08/26 04:28:32;;;;;;;24.15;10.77;;;;;;;27.17;55.17;101099.44;5073934;27;98778;-70
2022/08/26 04:30:59;;;;;;;27.15;9.98;;;;;;;27.24;54.99;101103.22;5075285;27;96624;-72
2022/08/26 04:33:25;;;;;;;21.35;10.38;;;;;;;27.17;55.13;101094.00;5063673;27;97117;-71
2022/08/26 04:35:59;;;;;;;28.55;9.63;;;;;;;26.94;55.74;101090.00;5071155;27;99432;-71
2022/08/26 04:38:26;;;;;;;19.40;10.05;;;;;;;27.09;55.46;101091.19;5060655;27;99081;-70
2022/08/26 04:40:52;;;;;;;24.70;10.10;;;;;;;27.09;55.37;101088.47;5070875;27;97118;-70
2022/08/26 04:43:20;;;;;;;24.15;9.35;;;;;;;27.14;55.26;101085.31;5063287;27;96977;-69
2022/08/26 04:45:46;;;;;;;26.65;10.60;;;;;;;27.06;55.84;101086.06;5068600;27;99253;-70
2022/08/26 04:48:15;;;;;;;26.17;10.27;;;;;;;27.08;55.53;101081.34;5072573;27;99069;-70
2022/08/26 04:50:44;;;;;;;21.92;9.80;;;;;;;27.17;55.37;101088.59;5073325;27;96828;-69
2022/08/26 04:53:10;;;;;;;27.92;10.15;;;;;;;27.10;55.52;101090.19;5071669;27;96936;-69
2022/08/26 04:55:38;;;;;;;24.00;9.32;;;;;;;27.33;54.86;101090.59;5073896;27;98941;-69
2022/08/26 04:58:08;;;;;;;31.55;10.73;;;;;;;27.44;54.47;101089.53;5064881;27;98754;-69
2022/08/26 05:00:36;;;;;;;35.25;10.00;;;;;;;27.51;54.30;101096.88;5074607;27;96920;-70
2022/08/26 05:03:04;;;;;;;24.83;10.25;;;;;;;27.49;54.26;101093.47;5065671;27;97382;-71
2022/08/26 05:05:30;;;;;;;25.40;9.20;;;;;;;27.79;53.49;101088.66;5071151;27;99482;-70
2022/08/26 05:07:57;;;;;;;28.23;9.90;;;;;;;27.87;53.42;101089.59;5064443;27;98684;-69
2022/08/26 05:10:24;;;;;;;33.67;10.40;;;;;;;28.03;53.00;101097.84;5070825;27;96774;-69
2022/08/26 05:12:50;;;;;;;30.75;10.25;;;;;;;28.05;52.96;101106.69;5072321;27;96850;-70
2022/08/26 05:15:17;;;;;;;29.13;10.13;;;;;;;28.10;52.52;101104.34;5067281;27;99186;-71
2022/08/26 05:17:49;;;;;;;25.13;10.15;;;;;;;28.10;52.54;101101.63;5068050;27;98781;-70
2022/08/26 05:20:15;;;;;;;29.55;12.35;;;;;;;28.17;52.57;101111.91;5072019;27;96751;-70
2022/08/26 05:22:42;;;;;;;27.63;9.88;;;;;;;28.12;52.77;101102.34;5066891;27;96878;-70
2022/08/26 05:25:09;;;;;;;34.78;9.55;;;;;;;28.10;52.70;101104.34;5070055;27;102189;-70
2022/08/26 05:27:35;;;;;;;25.20;9.77;;;;;;;28.20;52.42;101106.16;5067268;27;98810;-70
2022/08/26 05:30:01;;;;;;;25.65;10.15;;;;;;;28.08;52.93;101109.13;5070546;27;96764;-70
2022/08/26 05:32:28;;;;;;;26.55;8.85;;;;;;;28.19;52.68;101115.31;5070049;27;96764;-70
2022/08/26 05:34:59;;;;;;;18.00;9.38;;;;;;;28.02;52.92;101115.19;5071722;27;99408;-70
2022/08/26 05:37:25;;;;;;;21.10;9.65;;;;;;;28.11;52.69;101118.78;5069154;27;99171;-71
2022/08/26 05:39:52;;;;;;;22.48;9.93;;;;;;;28.11;52.71;101111.50;5071014;27;96732;-71
2022/08/26 05:42:18;;;;;;;22.92;9.35;;;;;;;28.17;52.70;101114.63;5072851;27;96768;-70
2022/08/26 05:44:45;;;;;;;27.25;11.10;;;;;;;28.21;52.78;101110.59;5070167;27;98873;-71
2022/08/26 05:47:13;;;;;;;21.35;11.55;;;;;;;28.17;52.81;101111.91;5072824;27;99041;-70
2022/08/26 05:49:41;;;;;;;36.20;12.13;;;;;;;28.30;52.35;101104.16;5070097;27;96726;-70
2022/08/26 05:52:11;;;;;;;37.13;13.13;;;;;;;28.56;51.84;101110.44;5070944;27;96837;-71
2022/08/26 05:54:38;;;;;;;33.65;12.10;;;;;;;28.62;51.82;101107.06;5061530;27;98151;-70
2022/08/26 05:57:05;;;;;;;39.00;12.70;;;;;;;28.69;51.73;101110.00;5067266;27;99166;-70
2022/08/26 05:59:32;;;;;;;42.33;11.88;;;;;;;28.72;51.21;101107.81;5062300;27;97033;-70
2022/08/26 06:01:59;;;;;;;24.10;11.05;;;;;;;28.95;50.65;101110.81;5067704;27;96685;-70
2022/08/26 06:04:25;;;;;;;29.23;11.10;;;;;;;28.85;50.69;101105.53;5067759;27;99212;-70
2022/08/26 06:06:52;;;;;;;30.40;10.75;;;;;;;28.86;50.75;101109.94;5072840;27;99230;-70
2022/08/26 06:09:23;;;;;;;29.13;10.90;;;;;;;28.97;50.65;101097.91;5063715;27;96743;-71
2022/08/26 06:11:50;;;;;;;25.58;9.90;;;;;;;29.08;50.40;101105.75;5068946;27;96855;-72
2022/08/26 06:14:17;;;;;;;28.45;10.00;;;;;;;29.23;50.05;101104.09;5062651;27;98999;-70
2022/08/26 06:16:44;;;;;;;25.75;9.75;;;;;;;29.33;49.88;101103.97;5067736;27;98343;-70
2022/08/26 06:19:14;;;;;;;31.23;10.35;;;;;;;29.31;49.75;101100.56;5069591;27;96749;-69
2022/08/26 06:21:42;;;;;;;26.88;9.80;;;;;;;29.37;49.52;101108.09;5068788;27;96753;-70
2022/08/26 06:26:57;;;;;;;28.13;9.38;;;;;;;29.58;48.96;101103.03;5069996;27;97582;-70
2022/08/26 06:29:31;;;;;;;32.90;9.90;;;;;;;29.63;49.32;101100.63;5069566;27;96852;-71
2022/08/26 06:31:59;;;;;;;28.23;10.05;;;;;;;29.82;48.63;101101.31;5067144;27;96765;-71
2022/08/26 06:34:27;;;;;;;26.05;10.65;;;;;;;30.04;48.41;101097.94;5072288;27;99594;-70
2022/08/26 06:36:54;;;;;;;26.35;9.68;;;;;;;29.83;48.61;101105.75;5067836;27;98894;-70
2022/08/26 06:39:21;;;;;;;27.13;9.55;;;;;;;30.22;47.68;101100.47;5073015;27;96708;-70
2022/08/26 06:41:48;;;;;;;32.10;9.93;;;;;;;30.22;47.95;101105.91;5067697;27;96743;-70
2022/08/26 06:44:16;;;;;;;27.48;9.15;;;;;;;30.18;47.49;101104.56;5064669;27;102237;-70
2022/08/26 06:46:45;;;;;;;29.15;9.00;;;;;;;30.17;48.02;101097.41;5066802;27;97727;-70
2022/08/26 06:49:12;;;;;;;25.10;8.85;;;;;;;30.21;47.53;101099.59;5072398;27;97052;-70
2022/08/26 06:51:40;;;;;;;30.38;9.00;;;;;;;30.27;47.67;101100.78;5072663;27;96962;-69
2022/08/26 06:54:09;;;;;;;28.23;9.20;;;;;;;30.16;48.31;101106.59;5067620;27;101843;-70
2022/08/26 06:56:38;;;;;;;28.88;9.70;;;;;;;30.09;48.09;101101.00;5071544;27;97292;-71
2022/08/26 06:59:06;;;;;;;27.25;9.15;;;;;;;29.95;48.93;101105.25;5070984;27;96753;-70
2022/08/26 07:01:37;;;;;;;27.35;9.18;;;;;;;29.98;48.27;101104.06;5070926;27;96845;-71
2022/08/26 07:04:06;;;;;;;29.90;9.18;;;;;;;30.27;48.17;101098.06;5070610;27;98926;-70
2022/08/26 07:06:36;;;;;;;31.77;9.35;;;;;;;30.07;48.26;101095.69;5065780;27;100996;-69
2022/08/26 07:09:06;;;;;;;28.38;9.45;;;;;;;30.40;47.76;101098.38;5065275;27;96822;-70
2022/08/26 07:11:36;;;;;;;29.48;9.23;;;;;;;30.64;47.48;101100.22;5070732;27;97075;-69
2022/08/26 07:14:03;;;;;;;32.58;9.65;;;;;;;30.95;46.73;101100.25;5065040;27;99301;-71
2022/08/26 07:16:29;;;;;;;35.92;9.30;;;;;;;31.20;45.68;101091.78;5066973;27;100753;-70
2022/08/26 07:18:57;;;;;;;26.90;8.68;;;;;;;31.14;46.03;101092.50;5068852;27;97034;-70
2022/08/26 07:21:26;;;;;;;31.13;9.20;;;;;;;31.12;46.24;101085.50;5064177;27;96803;-70
2022/08/26 07:23:54;;;;;;;27.45;9.38;;;;;;;31.39;45.46;101095.91;5068430;27;98462;-70
2022/08/26 07:26:23;;;;;;;31.00;8.10;;;;;;;31.57;44.78;101092.91;5071182;27;100741;-70
2022/08/26 07:28:54;;;;;;;34.85;8.75;;;;;;;31.56;44.75;101083.88;5071867;27;96739;-70
2022/08/26 07:31:23;;;;;;;30.45;7.68;;;;;;;31.54;44.82;101079.59;5071652;27;96847;-69
2022/08/26 07:33:50;;;;;;;29.75;7.85;;;;;;;31.64;44.93;101078.34;5072051;27;99021;-70
2022/08/26 07:36:19;;;;;;;28.90;8.98;;;;;;;31.49;45.18;101082.88;5069876;27;99157;-69
2022/08/26 07:38:47;;;;;;;28.58;8.38;;;;;;;31.86;44.38;101081.25;5065690;27;96822;-71
2022/08/26 07:41:16;;;;;;;28.60;8.13;;;;;;;32.06;44.15;101079.69;5069917;27;96944;-70
2022/08/26 07:43:42;;;;;;;33.42;9.00;;;;;;;31.72;44.64;101079.31;5070604;27;98914;-70
2022/08/26 07:46:09;;;;;;;35.22;8.70;;;;;;;32.13;43.90;101072.44;5066552;27;99248;-70
2022/08/26 07:48:37;;;;;;;27.60;7.32;;;;;;;32.18;43.67;101074.63;5071771;27;96799;-70
2022/08/26 07:51:09;;;;;;;45.92;8.60;;;;;;;32.26;43.31;101086.34;5070541;27;96832;-70
2022/08/26 07:53:38;;;;;;;35.92;8.25;;;;;;;32.48;42.92;101079.09;5068286;27;98296;-70
2022/08/26 07:56:04;;;;;;;32.38;8.18;;;;;;;32.65;42.65;101077.84;5070905;27;99193;-69
2022/08/26 07:58:31;;;;;;;30.25;8.13;;;;;;;32.38;42.79;101079.38;5071318;27;96779;-70
2022/08/26 08:00:57;;;;;;;34.75;8.95;;;;;;;32.39;43.17;101074.75;5075774;27;96917;-70
2022/08/26 08:03:25;;;;;;;33.03;8.00;;;;;;;32.23;43.25;101072.22;5055842;27;98950;-70
2022/08/26 08:05:51;;;;;;;27.45;8.10;;;;;;;32.55;42.68;101076.47;5064125;27;98771;-69
2022/08/26 08:08:21;;;;;;;25.42;7.30;;;;;;;32.64;42.67;101080.78;5072618;27;96834;-69
2022/08/26 08:10:51;;;;;;;29.25;7.03;;;;;;;32.83;41.86;101072.84;5068764;27;96842;-70
2022/08/26 08:13:18;;;;;;;28.88;7.32;;;;;;;32.93;41.83;101072.56;5071600;27;97669;-71
2022/08/26 08:15:47;;;;;;;29.67;7.80;;;;;;;32.77;41.58;101076.34;5071724;27;99388;-69
2022/08/26 08:18:15;;;;;;;30.13;6.90;;;;;;;32.56;42.41;101073.50;5072815;27;97140;-70
2022/08/26 08:20:42;;;;;;;20.63;7.35;;;;;;;32.46;42.85;101067.50;5069225;27;97194;-71
2022/08/26 08:23:08;;;;;;;21.48;6.60;;;;;;;32.48;42.10;101064.56;5060818;27;98883;-71
2022/08/26 08:25:35;;;;;;;30.33;7.05;;;;;;;32.35;42.84;101066.09;5071871;27;98300;-71
2022/08/26 08:28:03;;;;;;;25.52;6.97;;;;;;;32.31;42.88;101066.63;5067335;27;97351;-70
2022/08/26 08:30:31;;;;;;;27.45;8.02;;;;;;;32.62;41.96;101067.31;5071980;27;96959;-71
2022/08/26 08:32:58;;;;;;;25.35;7.00;;;;;;;32.77;42.14;101064.56;5069955;27;97488;-71
2022/08/26 08:35:25;;;;;;;31.10;7.10;;;;;;;32.60;42.15;101066.63;5072948;27;97657;-71
2022/08/26 08:37:55;;;;;;;28.17;6.75;;;;;;;32.82;41.74;101060.19;5065938;27;96866;-71
2022/08/26 08:40:26;;;;;;;30.00;6.70;;;;;;;33.15;40.90;101057.84;5066638;27;96922;-71
2022/08/26 08:42:59;;;;;;;25.27;7.30;;;;;;;33.28;41.00;101056.38;5067600;27;98935;-70
2022/08/26 08:45:33;;;;;;;29.80;7.13;;;;;;;33.40;40.49;101052.06;5070445;27;99276;-72
2022/08/26 08:48:01;;;;;;;21.33;6.03;;;;;;;33.46;40.83;101049.38;5071328;27;98504;-70
2022/08/26 08:50:32;;;;;;;26.60;6.68;;;;;;;33.24;40.93;101044.94;5066945;27;96904;-70
2022/08/26 08:53:04;;;;;;;23.10;6.10;;;;;;;33.17;41.12;101046.72;5072306;27;99189;-70
2022/08/26 08:55:45;;;;;;;24.42;6.93;;;;;;;33.10;40.63;101046.66;5065016;27;98875;-70
2022/08/26 08:58:17;;;;;;;28.48;6.25;;;;;;;33.04;41.17;101041.09;5063611;27;96723;-70
2022/08/26 09:00:55;;;;;;;34.45;7.40;;;;;;;33.10;41.33;101035.69;5065063;27;97333;-71
2022/08/26 09:03:37;;;;;;;25.50;6.68;;;;;;;32.76;41.63;101038.22;5066231;27;99686;-71
2022/08/26 09:06:15;;;;;;;32.33;6.53;;;;;;;33.06;40.69;101036.28;5063391;27;98905;-71
2022/08/26 09:08:44;;;;;;;27.05;6.25;;;;;;;33.10;40.09;101040.31;5070340;27;97343;-73
2022/08/26 09:11:12;;;;;;;27.25;6.32;;;;;;;33.00;40.88;101037.91;5068211;27;97050;-70
2022/08/26 09:13:42;;;;;;;31.70;6.85;;;;;;;33.21;40.33;101035.19;5068026;27;99128;-71
2022/08/26 09:16:17;;;;;;;37.90;6.53;;;;;;;33.36;40.36;101028.81;5061509;27;98895;-71
2022/08/26 09:18:57;;;;;;;31.20;5.80;;;;;;;33.40;39.88;101033.72;5063088;27;96795;-71
2022/08/26 09:21:28;;;;;;;28.45;6.50;;;;;;;33.38;40.21;101038.56;5064084;27;96845;-71
2022/08/26 09:23:59;;;;;;;24.02;6.63;;;;;;;33.42;39.99;101037.09;5067007;27;98937;-71
2022/08/26 09:26:28;;;;;;;25.67;6.70;;;;;;;33.55;40.13;101036.38;5060741;27;98897;-70
2022/08/26 09:28:59;;;;;;;28.25;6.75;;;;;;;33.84;39.80;101033.50;5066025;27;96947;-71
2022/08/26 09:31:31;;;;;;;21.52;5.93;;;;;;;33.67;39.69;101036.72;5059935;27;96720;-71
2022/08/26 09:34:15;;;;;;;30.08;7.63;;;;;;;33.74;40.14;101034.91;5064453;27;98177;-71
2022/08/26 09:36:43;;;;;;;28.17;6.47;;;;;;;33.87;39.26;101027.59;5066037;27;98924;-71
2022/08/26 09:39:35;;;;;;;28.30;6.85;;;;;;;33.89;39.58;101030.16;5065250;27;97161;-71
2022/08/26 09:42:08;;;;;;;35.72;6.25;;;;;;;33.88;39.42;101022.97;5066298;27;96869;-71
2022/08/26 09:44:53;;;;;;;25.17;6.63;;;;;;;33.91;39.39;101022.59;5065961;27;99647;-71
2022/08/26 09:47:25;;;;;;;28.90;6.47;;;;;;;33.91;38.87;101019.84;5066395;27;99050;-71
2022/08/26 09:49:59;;;;;;;32.15;6.60;;;;;;;34.01;38.25;101015.69;5066431;27;96780;-71
2022/08/26 09:52:26;;;;;;;27.17;7.25;;;;;;;34.30;37.94;101011.91;5070569;27;96723;-71
2022/08/26 09:55:09;;;;;;;28.35;6.30;;;;;;;34.23;37.91;101002.78;5067578;27;99131;-71
2022/08/26 09:57:45;;;;;;;27.27;5.88;;;;;;;34.35;37.16;100997.56;5063840;27;99151;-71
2022/08/26 10:00:23;;;;;;;;;;;;;;;34.70;36.75;100998.38;5064331;27;97094;-71
2022/08/26 10:02:54;;;;;;;25.17;5.65;;;;;;;35.26;35.66;100987.13;5063776;27;97185;-71
2022/08/26 10:05:31;;;;;;;32.50;5.88;;;;;;;35.27;35.68;100973.19;5062282;27;101209;-71
2022/08/26 10:07:59;;;;;;;21.48;5.72;;;;;;;35.68;34.75;100970.25;5064040;27;98870;-70
2022/08/26 10:10:32;;;;;;;31.58;6.00;;;;;;;35.64;34.52;100962.66;5066313;27;96747;-71
2022/08/26 10:13:06;;;;;;;36.50;6.68;;;;;;;35.48;34.34;100963.91;5068387;27;96798;-71
2022/08/26 10:15:45;;;;;;;38.58;5.78;;;;;;;35.48;34.68;100958.41;5064461;27;99218;-71
2022/08/26 10:18:20;;;;;;;31.90;5.95;;;;;;;35.63;34.64;100950.81;5071770;27;98701;-71
2022/08/26 10:20:57;;;;;;;28.92;5.82;;;;;;;35.33;35.10;100946.78;5065385;27;97049;-71
2022/08/26 10:23:28;;;;;;;32.95;6.55;;;;;;;35.51;34.78;100938.78;5061222;27;96921;-71
2022/08/26 10:26:04;;;;;;;33.00;6.55;;;;;;;35.38;35.11;100938.78;5065926;27;98961;-71
2022/08/26 10:28:39;;;;;;;33.15;6.32;;;;;;;35.43;34.91;100933.50;5071046;27;99209;-71
2022/08/26 10:31:15;;;;;;;28.95;5.40;;;;;;;35.61;34.38;100930.09;5068285;27;97110;-71
2022/08/26 10:33:48;;;;;;;34.13;6.88;;;;;;;35.48;34.42;100931.78;5064932;27;96842;-71
2022/08/26 10:39:08;;;;;;;40.47;6.63;;;;;;;35.46;35.09;100917.41;5065860;27;97316;-71
2022/08/26 10:41:39;;;;;;;23.25;5.78;;;;;;;35.42;34.67;100915.31;5061701;27;96858;-71
2022/08/26 10:44:10;;;;;;;32.65;6.53;;;;;;;35.59;34.64;100913.78;5064977;27;96818;-71
2022/08/26 10:46:42;;;;;;;30.83;6.85;;;;;;;35.35;35.04;100903.47;5068983;27;99558;-72
2022/08/26 10:49:20;;;;;;;26.35;6.40;;;;;;;35.48;34.62;100906.22;5067569;27;99184;-70
2022/08/26 10:51:59;;;;;;;26.95;5.47;;;;;;;35.52;34.78;100901.97;5063987;27;96835;-70
2022/08/26 10:54:34;;;;;;;29.27;6.75;;;;;;;35.43;34.83;100897.78;5063942;27;96824;-71
2022/08/26 10:57:08;;;;;;;24.83;5.95;;;;;;;35.55;34.35;100891.41;5062873;27;100813;-73
2022/08/26 10:59:47;;;;;;;39.45;6.68;;;;;;;35.70;33.91;100876.63;5058278;27;99196;-70
2022/08/26 11:02:23;;;;;;;28.55;6.63;;;;;;;35.92;33.96;100887.09;5066288;27;96784;-69
2022/08/26 11:04:56;;;;;;;34.47;6.82;;;;;;;35.88;33.33;100874.88;5069163;27;97449;-71
2022/08/26 11:07:43;;;;;;;22.40;6.28;;;;;;;35.93;33.60;100874.22;5063637;27;98923;-71
2022/08/26 11:10:45;;;;;;;35.72;6.30;;;;;;;36.34;32.58;100857.34;5064808;27;99428;-70
2022/08/26 11:16:02;;;;;;;27.65;6.30;;;;;;;36.00;33.18;100868.69;5067555;27;97215;-70
2022/08/26 11:18:39;;;;;;;29.83;6.78;;;;;;;36.14;32.95;100876.66;5070778;27;99387;-70
2022/08/26 11:21:45;;;;;;;18.27;5.85;;;;;;;35.95;33.00;100872.94;5065174;27;98219;-70
2022/08/26 11:24:42;;;;;;;20.60;6.00;;;;;;;35.77;33.37;100859.06;5068629;27;96858;-70
2022/08/26 11:27:11;;;;;;;26.55;6.82;;;;;;;35.87;33.64;100851.19;5063960;27;97941;-70
2022/08/26 11:30:01;;;;;;;28.20;7.03;;;;;;;35.66;34.48;100850.56;5073472;27;99705;-71
2022/08/26 11:32:47;;;;;;;34.47;6.55;;;;;;;35.50;34.40;100846.41;5072168;27;97713;-70
2022/08/26 11:35:48;;;;;;;32.28;6.18;;;;;;;35.67;34.88;100838.53;5063913;27;97090;-69
2022/08/26 11:38:20;;;;;;;37.47;7.85;;;;;;;35.94;34.47;100829.16;5074917;27;97151;-70
2022/08/26 11:41:10;;;;;;;31.65;6.72;;;;;;;35.77;34.55;100842.56;5070822;27;98200;-70